Flight Track Log - Related Links

Times and Time Zones

All times are in EDT time to prevent confusion due to time zone crossing. See the GJS3618 flight status page for this flight to view local times or setup timezone preferences in your user account.

Time Position Orientation Groundspeed Altitude Reporting Facility
EDT Latitude Longitude Course Direction KTS MPH feet Rate Location/Type
Fri 12:13:44 PM 39.8667 -104.6000 100° East 186 214 6,600  Level Denver TRACON
Fri 12:14:10 PM 39.8697 -104.5878 72° East 177 204 6,900 1,820 Climbing Denver Center
Fri 12:15:13 PM 39.8397 -104.4842 111° Southeast 237 273 9,300 1,872 Climbing Denver Center
Fri 12:16:00 PM 39.7899 -104.2008 101° East  Level FlightAware Approximate
Fri 12:16:15 PM 39.8100 -104.3822 111° Southeast 306 352 10,800  Level Denver Center
Fri 12:17:00 PM 39.7667 -104.0462 90° East  Level FlightAware Approximate
Fri 12:17:17 PM 39.8003 -104.2572 96° East 354 407 12,100  Level Denver Center
Fri 12:18:00 PM 39.7604 -103.8894 100° East  Level FlightAware Approximate
Fri 12:18:19 PM 39.7836 -104.1122 98° East 377 434 14,500  Level Denver Center
Fri 12:19:21 PM 39.7689 -103.9764 98° East 383 441 16,700 1,935 Climbing Denver Center
Fri 12:20:23 PM 39.7514 -103.8250 99° East 394 453 18,500 1,500 Climbing Denver Center
Fri 12:21:25 PM 39.7369 -103.6900 98° East 397 457 19,800 1,210 Climbing Denver Center
Fri 12:22:27 PM 39.7253 -103.5353 96° East 422 486 21,000 1,306 Climbing Denver Center
Fri 12:23:29 PM 39.7214 -103.3461 91° East 443 510 22,500 1,306 Climbing Denver Center
Fri 12:24:31 PM 39.7167 -103.1797 92° East 456 525 23,700 1,161 Climbing Denver Center
Fri 12:25:33 PM 39.7111 -103.0111 92° East 464 534 24,900 1,065 Climbing Denver Center
Fri 12:26:35 PM 39.7053 -102.8414 93° East 466 536 25,900 968 Climbing Denver Center
Fri 12:27:37 PM 39.6997 -102.6661 92° East 476 548 26,900 968 Climbing Denver Center
Fri 12:28:39 PM 39.6939 -102.4742 92° East 476 548 27,900 774 Climbing Denver Center
Fri 12:29:41 PM 39.6883 -102.3069 92° East 482 555 28,500 677 Climbing Denver Center
Fri 12:30:43 PM 39.6797 -102.1067 93° East 495 570 29,300 823 Climbing Denver Center
Fri 12:31:45 PM 39.6736 -101.9353 93° East 497 572 30,200 871 Climbing Denver Center
Fri 12:32:47 PM 39.6647 -101.7358 93° East 499 574 31,100 774 Climbing Denver Center
Fri 12:33:49 PM 39.6586 -101.5936 93° East 499 574 31,800 816 Climbing Denver Center
Fri 12:34:52 PM 39.6494 -101.3939 93° East 499 574 32,800 968 Climbing Denver Center
Fri 12:35:53 PM 39.6422 -101.2222 93° East 500 575 33,800 1,016 Climbing Denver Center
Fri 12:36:56 PM 39.6322 -101.0269 94° East 491 565 34,900 965 Climbing Denver Center
Fri 12:38:00 PM 39.6241 -100.8675 94° East  Level FlightAware Approximate
Fri 12:39:12 PM 39.6122 -100.6100 94° East 484 557 37,000  Level Denver Center
Fri 12:40:14 PM 39.6025 -100.4442 94° East 484 557 37,000  Level Denver Center
Fri 12:41:16 PM 39.5917 -100.2464 94° East 492 566 37,000  Level Denver Center
Fri 12:42:18 PM 39.5825 -100.0750 94° East 497 572 37,000  Level Denver Center
Fri 12:43:20 PM 39.5719 -99.8881 94° East 492 566 37,000  Level Denver Center
Fri 12:44:22 PM 39.5619 -99.7122 94° East 490 564 37,000 387 Level Denver Center
Fri 12:45:24 PM 39.5511 -99.5381 95° East 489 563 37,800 919 Climbing Denver Center
Fri 12:46:26 PM 39.5406 -99.3656 94° East 484 557 38,900 526 Climbing Denver Center
Fri 12:47:41 PM 39.5264 -99.1333 94° East 467 537 39,000 44 Climbing Denver Center
Fri 12:48:43 PM 39.5156 -98.9681 95° East 463 533 39,000  Level Denver Center
Fri 12:49:45 PM 39.5047 -98.8025 95° East 463 533 39,000  Level Denver Center
Fri 12:50:47 PM 39.4931 -98.6381 95° East 461 531 39,000  Level Denver Center
Fri 12:51:49 PM 39.4808 -98.4700 95° East 466 536 39,000  Level Denver Center
Fri 12:52:51 PM 39.4697 -98.3022 95° East 469 540 39,000  Level Denver Center
Fri 12:53:53 PM 39.4564 -98.1100 95° East 470 541 39,000  Level Kansas City Center
Fri 12:54:54 PM 39.4425 -97.9483 96° East 471 542 39,000  Level Kansas City Center
Fri 12:55:55 PM 39.4311 -97.7556 94° East 480 552 39,000  Level Kansas City Center
Fri 12:56:59 PM 39.4178 -97.5847 96° East 479 551 39,000  Level Kansas City Center
Fri 12:58:00 PM 39.4014 -97.4022 97° East 475 547 39,000  Level Kansas City Center
Fri 12:59:03 PM 39.3886 -97.2372 96° East 480 552 39,000  Level Kansas City Center
Fri 01:00:04 PM 39.3731 -97.0450 96° East 482 555 39,000  Level Kansas City Center
Fri 01:01:05 PM 39.3594 -96.8800 96° East 483 556 39,000  Level Kansas City Center
Fri 01:02:09 PM 39.3456 -96.7153 96° East 483 556 39,000  Level Kansas City Center
Fri 01:03:10 PM 39.3297 -96.5233 96° East 481 554 39,000  Level Kansas City Center
Fri 01:04:11 PM 39.3144 -96.3500 96° East 482 555 39,000  Level Kansas City Center
Fri 01:05:15 PM 39.2983 -96.1781 97° East 483 556 39,000  Level Kansas City Center
Fri 01:06:16 PM 39.2814 -96.0033 97° East 483 556 39,000  Level Kansas City Center
Fri 01:07:20 PM 39.2642 -95.8131 97° East 479 551 39,000  Level Kansas City Center
Fri 01:08:20 PM 39.2497 -95.6489 96° East 480 552 39,000  Level Kansas City Center
Fri 01:09:22 PM 39.2314 -95.4606 97° East 476 548 39,000  Level Kansas City Center
Fri 01:10:26 PM 39.2131 -95.2764 97° East 481 554 39,000  Level Kansas City Center
Fri 01:11:26 PM 39.1958 -95.1075 97° East 479 551 39,000  Level Kansas City Center
Fri 01:12:29 PM 39.1786 -94.9289 97° East 477 549 39,000  Level Kansas City Center
Fri 01:13:30 PM 39.1617 -94.7656 98° East 480 552 39,000  Level Kansas City Center
Fri 01:14:34 PM 39.1428 -94.5764 97° East 476 548 39,000  Level Kansas City Center
Fri 01:15:35 PM 39.1256 -94.4142 98° East 478 550 39,000  Level Kansas City Center
Fri 01:16:36 PM 39.1056 -94.2256 98° East 476 548 39,000  Level Kansas City Center
Fri 01:17:39 PM 39.0853 -94.0631 99° East 478 550 39,000  Level Kansas City Center
Fri 01:18:40 PM 39.0581 -93.9014 102° East 480 552 39,000  Level Kansas City Center
Fri 01:19:42 PM 39.0286 -93.7139 101° East 481 554 39,000 -48 Level Kansas City Center
Fri 01:20:45 PM 39.0028 -93.5531 102° East 479 551 38,900 -571 Descending Kansas City Center
Fri 01:21:48 PM 38.9758 -93.3861 102° East 477 549 37,800 -1,161 Descending Kansas City Center
Fri 01:22:49 PM 38.9428 -93.1864 102° East 476 548 36,500 -1,377 Descending Kansas City Center
Fri 01:23:50 PM 38.9142 -93.0203 102° East 474 545 35,000 -1,440 Descending Kansas City Center
Fri 01:24:54 PM 38.8853 -92.8522 102° East 478 550 33,500 -1,452 Descending Kansas City Center
Fri 01:25:54 PM 38.8572 -92.6833 102° East 481 554 32,000 -1,500 Descending Kansas City Center
Fri 01:26:58 PM 38.8275 -92.5133 103° East 484 557 30,400 -1,500 Descending Kansas City Center
Fri 01:27:58 PM 38.7983 -92.3433 102° East 484 557 28,900 -1,452 Descending Kansas City Center
Fri 01:29:02 PM 38.7706 -92.1781 102° East 480 552 27,400 -1,452 Descending Kansas City Center
Fri 01:30:02 PM 38.7400 -92.0150 103° East 473 544 25,900 -1,561 Descending Kansas City Center
Fri 01:31:05 PM 38.7075 -91.8314 103° East 446 513 24,200 -1,344 Descending Kansas City Center
Fri 01:32:07 PM 38.6933 -91.6808 97° East 429 494 23,100 -1,174 Descending Kansas City Center
Fri 01:32:37 PM 38.6944 -91.5581 89° East 422 486 22,400 -1,560 Descending FAA TRACON SMA TRACON (SMA)
Fri 01:32:57 PM 38.6942 -91.5014 90° East 417 480 21,800 -1,463 Descending FAA TRACON SMA TRACON (SMA)
Fri 01:33:18 PM 38.6933 -91.4561 91° East 413 475 21,400 -1,463 Descending FAA TRACON SMA TRACON (SMA)
Fri 01:33:38 PM 38.6933 -91.4008 90° East 407 468 20,800 -1,950 Descending FAA TRACON SMA TRACON (SMA)
Fri 01:33:58 PM 38.6931 -91.3569 90° East 402 463 20,100 -2,250 Descending FAA TRACON SMA TRACON (SMA)
Fri 01:34:18 PM 38.6928 -91.3139 90° East 399 459 19,300 -2,769 Descending FAA TRACON SMA TRACON (SMA)
Fri 01:34:37 PM 38.6928 -91.2708 90° East 396 456 18,300 -3,077 Descending FAA TRACON SMA TRACON (SMA)
Fri 01:34:57 PM 38.6925 -91.2181 90° East 387 445 17,300 -2,850 Descending FAA TRACON SMA TRACON (SMA)
Fri 01:35:17 PM 38.6919 -91.1769 91° East 377 434 16,400 -3,220 Descending FAA TRACON SMA TRACON (SMA)
Fri 01:35:38 PM 38.6922 -91.1272 90° East 366 421 15,100 -3,366 Descending FAA TRACON SMA TRACON (SMA)
Fri 01:35:58 PM 38.6931 -91.0886 88° East 358 412 14,100 -3,000 Descending FAA TRACON SMA TRACON (SMA)
Fri 01:36:18 PM 38.6972 -91.0511 82° East 349 402 13,100 -3,300 Descending FAA TRACON SMA TRACON (SMA)
Fri 01:36:38 PM 38.7106 -91.0097 68° East 334 384 11,900 -3,300 Descending FAA TRACON SMA TRACON (SMA)
Fri 01:36:58 PM 38.7236 -90.9789 62° Northeast 324 373 10,900 -2,154 Descending FAA TRACON SMA TRACON (SMA)
Fri 01:37:17 PM 38.7369 -90.9500 59° Northeast 313 360 10,500 -1,538 Descending FAA TRACON SMA TRACON (SMA)
Fri 01:37:37 PM 38.7517 -90.9156 61° Northeast 293 337 9,900 -1,950 Descending FAA TRACON SMA TRACON (SMA)
Fri 01:37:57 PM 38.7631 -90.8889 61° Northeast 283 326 9,200 -2,250 Descending FAA TRACON SMA TRACON (SMA)
Fri 01:38:17 PM 38.7747 -90.8625 60° Northeast 279 321 8,400 -2,850 Descending FAA TRACON SMA TRACON (SMA)
Fri 01:38:37 PM 38.7900 -90.8289 60° Northeast 281 323 7,300 -2,850 Descending FAA TRACON SMA TRACON (SMA)
Fri 01:38:57 PM 38.8008 -90.8017 63° Northeast 281 323 6,500 -2,049 Descending FAA TRACON SMA TRACON (SMA)
Fri 01:39:18 PM 38.8097 -90.7733 68° East 279 321 5,900 -1,902 Descending FAA TRACON SMA TRACON (SMA)
Fri 01:39:38 PM 38.8194 -90.7394 70° East 270 311 5,200 -1,500 Descending FAA TRACON SMA TRACON (SMA)
Fri 01:39:58 PM 38.8258 -90.7125 73° East 262 302 4,900 -1,050 Descending FAA TRACON SMA TRACON (SMA)
Fri 01:40:18 PM 38.8269 -90.6850 87° East 254 292 4,500 -1,500 Descending FAA TRACON SMA TRACON (SMA)
Fri 01:40:38 PM 38.8278 -90.6506 88° East 251 289 3,900 -1,500 Descending FAA TRACON SMA TRACON (SMA)
Fri 01:40:58 PM 38.8283 -90.6231 89° East 251 289 3,500 -923 Descending FAA TRACON SMA TRACON (SMA)
Fri 01:41:17 PM 38.8294 -90.5958 87° East 249 287 3,300 -789 Descending FAA TRACON SMA TRACON (SMA)
Fri 01:41:36 PM 38.8303 -90.5686 88° East 248 285 3,000 -600 Descending FAA TRACON SMA TRACON (SMA)
Fri 01:41:57 PM 38.8314 -90.5364 87° East 240 276 2,900 -439 Descending FAA TRACON SMA TRACON (SMA)
Fri 01:42:17 PM 38.8311 -90.5125 91° East 225 259 2,700 -600 Descending FAA TRACON SMA TRACON (SMA)
Fri 01:42:37 PM 38.8236 -90.4911 114° Southeast 217 250 2,500 -300 Descending FAA TRACON SMA TRACON (SMA)
Fri 01:42:57 PM 38.8117 -90.4667 122° Southeast 210 242 2,500 -150 Level FAA TRACON SMA TRACON (SMA)
Fri 01:43:17 PM 38.8017 -90.4489 126° Southeast 202 232 2,400 -750 Descending FAA TRACON SMA TRACON (SMA)
Fri 01:43:37 PM 38.7908 -90.4281 124° Southeast 186 214 2,000 -1,200 Descending FAA TRACON SMA TRACON (SMA)

Login

Don't have an account? Register now (free) for customized features, flight alerts, and more!